sensor_id;sensor_type;location;lat;lon;timestamp;P1;durP1;ratioP1;P2;durP2;ratioP2
5622;SDS011;2833;50.432;10.706;2022-12-18T00:00:20;25.80;;;13.10;;
5622;SDS011;2833;50.432;10.706;2022-12-18T00:02:45;20.60;;;12.47;;
5622;SDS011;2833;50.432;10.706;2022-12-18T00:05:10;23.10;;;13.10;;
5622;SDS011;2833;50.432;10.706;2022-12-18T00:07:36;24.20;;;12.70;;
5622;SDS011;2833;50.432;10.706;2022-12-18T00:10:01;24.50;;;12.77;;
5622;SDS011;2833;50.432;10.706;2022-12-18T00:12:27;26.20;;;13.63;;
5622;SDS011;2833;50.432;10.706;2022-12-18T00:14:52;27.10;;;12.83;;
5622;SDS011;2833;50.432;10.706;2022-12-18T00:17:17;19.77;;;12.53;;
5622;SDS011;2833;50.432;10.706;2022-12-18T00:19:42;23.23;;;12.70;;
5622;SDS011;2833;50.432;10.706;2022-12-18T00:22:08;19.97;;;11.57;;
5622;SDS011;2833;50.432;10.706;2022-12-18T00:24:33;20.20;;;11.47;;
5622;SDS011;2833;50.432;10.706;2022-12-18T00:26:58;23.00;;;12.47;;
5622;SDS011;2833;50.432;10.706;2022-12-18T00:29:23;22.93;;;12.77;;
5622;SDS011;2833;50.432;10.706;2022-12-18T00:31:49;20.23;;;12.30;;
5622;SDS011;2833;50.432;10.706;2022-12-18T00:34:14;22.10;;;12.00;;
5622;SDS011;2833;50.432;10.706;2022-12-18T00:36:39;23.67;;;13.33;;
5622;SDS011;2833;50.432;10.706;2022-12-18T00:39:05;21.70;;;12.40;;
5622;SDS011;2833;50.432;10.706;2022-12-18T00:41:30;19.50;;;12.90;;
5622;SDS011;2833;50.432;10.706;2022-12-18T00:44:15;20.80;;;12.27;;
5622;SDS011;2833;50.432;10.706;2022-12-18T00:46:41;21.43;;;11.90;;
5622;SDS011;2833;50.432;10.706;2022-12-18T00:49:07;21.43;;;13.10;;
5622;SDS011;2833;50.432;10.706;2022-12-18T00:51:32;20.80;;;12.03;;
5622;SDS011;2833;50.432;10.706;2022-12-18T00:53:57;23.03;;;11.77;;
5622;SDS011;2833;50.432;10.706;2022-12-18T00:56:23;18.63;;;11.30;;
5622;SDS011;2833;50.432;10.706;2022-12-18T00:58:48;20.33;;;10.90;;
5622;SDS011;2833;50.432;10.706;2022-12-18T01:01:13;21.60;;;12.03;;
5622;SDS011;2833;50.432;10.706;2022-12-18T01:03:38;19.77;;;11.43;;
5622;SDS011;2833;50.432;10.706;2022-12-18T01:06:07;19.60;;;10.80;;
5622;SDS011;2833;50.432;10.706;2022-12-18T01:08:32;19.60;;;10.80;;
5622;SDS011;2833;50.432;10.706;2022-12-18T01:10:58;19.07;;;11.30;;
5622;SDS011;2833;50.432;10.706;2022-12-18T01:13:23;23.50;;;14.07;;
5622;SDS011;2833;50.432;10.706;2022-12-18T01:15:49;29.87;;;15.80;;
5622;SDS011;2833;50.432;10.706;2022-12-18T01:18:14;23.60;;;13.23;;
5622;SDS011;2833;50.432;10.706;2022-12-18T01:20:39;20.20;;;12.17;;
5622;SDS011;2833;50.432;10.706;2022-12-18T01:23:05;22.80;;;13.07;;
5622;SDS011;2833;50.432;10.706;2022-12-18T01:25:30;20.73;;;12.47;;
5622;SDS011;2833;50.432;10.706;2022-12-18T01:27:55;20.43;;;11.80;;
5622;SDS011;2833;50.432;10.706;2022-12-18T01:30:20;17.70;;;11.03;;
5622;SDS011;2833;50.432;10.706;2022-12-18T01:32:45;23.93;;;10.63;;
5622;SDS011;2833;50.432;10.706;2022-12-18T01:35:11;18.50;;;10.77;;
5622;SDS011;2833;50.432;10.706;2022-12-18T01:37:36;20.50;;;10.67;;
5622;SDS011;2833;50.432;10.706;2022-12-18T01:40:01;18.47;;;10.17;;
5622;SDS011;2833;50.432;10.706;2022-12-18T01:42:26;20.53;;;11.10;;
5622;SDS011;2833;50.432;10.706;2022-12-18T01:49:48;27.90;;;13.60;;
5622;SDS011;2833;50.432;10.706;2022-12-18T01:52:13;24.67;;;14.57;;
5622;SDS011;2833;50.432;10.706;2022-12-18T01:54:39;26.03;;;12.63;;
5622;SDS011;2833;50.432;10.706;2022-12-18T01:57:04;32.50;;;13.83;;
5622;SDS011;2833;50.432;10.706;2022-12-18T01:59:30;25.93;;;13.50;;
5622;SDS011;2833;50.432;10.706;2022-12-18T02:01:56;26.67;;;12.80;;
5622;SDS011;2833;50.432;10.706;2022-12-18T02:04:22;27.50;;;13.50;;
5622;SDS011;2833;50.432;10.706;2022-12-18T02:06:52;23.83;;;12.77;;
5622;SDS011;2833;50.432;10.706;2022-12-18T02:09:24;23.57;;;12.40;;
5622;SDS011;2833;50.432;10.706;2022-12-18T02:14:38;21.73;;;12.00;;
5622;SDS011;2833;50.432;10.706;2022-12-18T02:17:26;22.67;;;11.30;;
5622;SDS011;2833;50.432;10.706;2022-12-18T02:25:12;18.57;;;10.83;;
5622;SDS011;2833;50.432;10.706;2022-12-18T02:27:38;20.20;;;11.33;;
5622;SDS011;2833;50.432;10.706;2022-12-18T02:30:04;21.03;;;11.60;;
5622;SDS011;2833;50.432;10.706;2022-12-18T02:32:31;19.13;;;11.30;;
5622;SDS011;2833;50.432;10.706;2022-12-18T02:34:58;23.43;;;12.63;;
5622;SDS011;2833;50.432;10.706;2022-12-18T02:37:24;27.80;;;13.80;;
5622;SDS011;2833;50.432;10.706;2022-12-18T02:39:51;33.23;;;15.00;;
5622;SDS011;2833;50.432;10.706;2022-12-18T02:42:18;30.93;;;14.27;;
5622;SDS011;2833;50.432;10.706;2022-12-18T02:44:47;27.80;;;15.07;;
5622;SDS011;2833;50.432;10.706;2022-12-18T02:47:13;26.40;;;12.37;;
5622;SDS011;2833;50.432;10.706;2022-12-18T02:49:48;22.70;;;12.33;;
5622;SDS011;2833;50.432;10.706;2022-12-18T02:54:55;22.43;;;11.43;;
5622;SDS011;2833;50.432;10.706;2022-12-18T02:57:29;20.00;;;12.00;;
5622;SDS011;2833;50.432;10.706;2022-12-18T03:00:01;21.97;;;11.83;;
5622;SDS011;2833;50.432;10.706;2022-12-18T03:02:39;20.53;;;12.10;;
5622;SDS011;2833;50.432;10.706;2022-12-18T03:05:16;21.23;;;11.37;;
5622;SDS011;2833;50.432;10.706;2022-12-18T03:07:44;23.10;;;11.50;;
5622;SDS011;2833;50.432;10.706;2022-12-18T03:10:13;19.47;;;10.73;;
5622;SDS011;2833;50.432;10.706;2022-12-18T03:12:40;21.83;;;10.13;;
5622;SDS011;2833;50.432;10.706;2022-12-18T03:15:13;17.33;;;9.93;;
5622;SDS011;2833;50.432;10.706;2022-12-18T03:17:40;19.73;;;10.10;;
5622;SDS011;2833;50.432;10.706;2022-12-18T03:20:09;19.57;;;11.10;;
5622;SDS011;2833;50.432;10.706;2022-12-18T03:22:35;21.77;;;11.60;;
5622;SDS011;2833;50.432;10.706;2022-12-18T03:25:03;19.53;;;11.50;;
5622;SDS011;2833;50.432;10.706;2022-12-18T03:27:29;22.20;;;11.83;;
5622;SDS011;2833;50.432;10.706;2022-12-18T03:30:02;23.40;;;12.87;;
5622;SDS011;2833;50.432;10.706;2022-12-18T03:32:33;21.27;;;12.13;;
5622;SDS011;2833;50.432;10.706;2022-12-18T03:34:59;24.50;;;12.43;;
5622;SDS011;2833;50.432;10.706;2022-12-18T03:37:26;27.60;;;12.03;;
5622;SDS011;2833;50.432;10.706;2022-12-18T03:39:51;21.40;;;11.33;;
5622;SDS011;2833;50.432;10.706;2022-12-18T03:42:29;19.90;;;11.47;;
5622;SDS011;2833;50.432;10.706;2022-12-18T03:45:02;23.67;;;11.27;;
5622;SDS011;2833;50.432;10.706;2022-12-18T03:55:23;14.80;;;8.20;;
5622;SDS011;2833;50.432;10.706;2022-12-18T03:57:49;20.50;;;10.00;;
5622;SDS011;2833;50.432;10.706;2022-12-18T04:00:17;19.37;;;10.40;;
5622;SDS011;2833;50.432;10.706;2022-12-18T04:02:44;21.17;;;11.40;;
5622;SDS011;2833;50.432;10.706;2022-12-18T04:05:10;19.80;;;10.53;;
5622;SDS011;2833;50.432;10.706;2022-12-18T04:07:36;17.47;;;9.33;;
5622;SDS011;2833;50.432;10.706;2022-12-18T04:10:03;18.30;;;9.23;;
5622;SDS011;2833;50.432;10.706;2022-12-18T04:12:30;17.43;;;9.23;;
5622;SDS011;2833;50.432;10.706;2022-12-18T04:14:55;20.17;;;9.67;;
5622;SDS011;2833;50.432;10.706;2022-12-18T04:17:21;15.90;;;9.50;;
5622;SDS011;2833;50.432;10.706;2022-12-18T04:19:46;16.30;;;9.50;;
5622;SDS011;2833;50.432;10.706;2022-12-18T04:22:11;18.40;;;10.67;;
5622;SDS011;2833;50.432;10.706;2022-12-18T04:24:37;16.10;;;10.00;;
5622;SDS011;2833;50.432;10.706;2022-12-18T04:27:02;25.27;;;13.47;;
5622;SDS011;2833;50.432;10.706;2022-12-18T04:29:27;24.00;;;12.77;;
5622;SDS011;2833;50.432;10.706;2022-12-18T04:31:53;21.50;;;13.27;;
5622;SDS011;2833;50.432;10.706;2022-12-18T04:34:19;21.13;;;11.60;;
5622;SDS011;2833;50.432;10.706;2022-12-18T04:36:44;15.57;;;8.47;;
5622;SDS011;2833;50.432;10.706;2022-12-18T04:39:09;18.70;;;9.10;;
5622;SDS011;2833;50.432;10.706;2022-12-18T04:41:34;15.40;;;8.90;;
5622;SDS011;2833;50.432;10.706;2022-12-18T04:44:00;16.07;;;8.43;;
5622;SDS011;2833;50.432;10.706;2022-12-18T04:46:25;14.40;;;9.03;;
5622;SDS011;2833;50.432;10.706;2022-12-18T04:48:50;17.80;;;10.97;;
5622;SDS011;2833;50.432;10.706;2022-12-18T04:51:15;14.73;;;8.40;;
5622;SDS011;2833;50.432;10.706;2022-12-18T04:53:40;15.90;;;7.47;;
5622;SDS011;2833;50.432;10.706;2022-12-18T04:56:07;16.90;;;7.83;;
5622;SDS011;2833;50.432;10.706;2022-12-18T04:58:32;12.03;;;8.00;;
5622;SDS011;2833;50.432;10.706;2022-12-18T05:00:57;17.50;;;8.10;;
5622;SDS011;2833;50.432;10.706;2022-12-18T05:03:23;21.47;;;10.93;;
5622;SDS011;2833;50.432;10.706;2022-12-18T05:05:51;35.60;;;16.97;;
5622;SDS011;2833;50.432;10.706;2022-12-18T05:08:17;20.03;;;10.33;;
5622;SDS011;2833;50.432;10.706;2022-12-18T05:10:42;18.93;;;9.87;;
5622;SDS011;2833;50.432;10.706;2022-12-18T05:13:07;18.50;;;9.20;;
5622;SDS011;2833;50.432;10.706;2022-12-18T05:15:32;17.93;;;9.73;;
5622;SDS011;2833;50.432;10.706;2022-12-18T05:17:58;18.40;;;10.00;;
5622;SDS011;2833;50.432;10.706;2022-12-18T05:20:23;17.70;;;8.77;;
5622;SDS011;2833;50.432;10.706;2022-12-18T05:22:49;16.83;;;9.63;;
5622;SDS011;2833;50.432;10.706;2022-12-18T05:25:14;19.40;;;9.73;;
5622;SDS011;2833;50.432;10.706;2022-12-18T05:27:40;26.40;;;11.57;;
5622;SDS011;2833;50.432;10.706;2022-12-18T05:30:05;20.17;;;11.97;;
5622;SDS011;2833;50.432;10.706;2022-12-18T05:32:30;21.20;;;10.50;;
5622;SDS011;2833;50.432;10.706;2022-12-18T05:34:56;22.13;;;11.80;;
5622;SDS011;2833;50.432;10.706;2022-12-18T05:37:22;14.30;;;9.00;;
5622;SDS011;2833;50.432;10.706;2022-12-18T05:39:47;16.23;;;9.30;;
5622;SDS011;2833;50.432;10.706;2022-12-18T05:42:12;15.57;;;8.87;;
5622;SDS011;2833;50.432;10.706;2022-12-18T05:44:37;15.40;;;8.30;;
5622;SDS011;2833;50.432;10.706;2022-12-18T05:47:03;15.27;;;7.90;;
5622;SDS011;2833;50.432;10.706;2022-12-18T05:49:29;14.40;;;7.40;;
5622;SDS011;2833;50.432;10.706;2022-12-18T05:51:54;14.13;;;7.70;;
5622;SDS011;2833;50.432;10.706;2022-12-18T05:54:19;35.70;;;16.80;;
5622;SDS011;2833;50.432;10.706;2022-12-18T05:56:44;27.50;;;13.83;;
5622;SDS011;2833;50.432;10.706;2022-12-18T05:59:09;29.83;;;15.67;;
5622;SDS011;2833;50.432;10.706;2022-12-18T06:01:35;60.10;;;27.50;;
5622;SDS011;2833;50.432;10.706;2022-12-18T06:04:00;19.37;;;11.53;;
5622;SDS011;2833;50.432;10.706;2022-12-18T06:06:26;13.50;;;9.13;;
5622;SDS011;2833;50.432;10.706;2022-12-18T06:08:51;19.97;;;9.60;;
5622;SDS011;2833;50.432;10.706;2022-12-18T06:11:18;18.57;;;9.97;;
5622;SDS011;2833;50.432;10.706;2022-12-18T06:13:43;19.53;;;8.73;;
5622;SDS011;2833;50.432;10.706;2022-12-18T06:16:08;14.33;;;8.60;;
5622;SDS011;2833;50.432;10.706;2022-12-18T06:18:34;17.37;;;8.50;;
5622;SDS011;2833;50.432;10.706;2022-12-18T06:21:02;11.80;;;7.57;;
5622;SDS011;2833;50.432;10.706;2022-12-18T06:23:27;13.80;;;7.67;;
5622;SDS011;2833;50.432;10.706;2022-12-18T06:25:53;11.83;;;6.73;;
5622;SDS011;2833;50.432;10.706;2022-12-18T06:28:18;18.50;;;11.17;;
5622;SDS011;2833;50.432;10.706;2022-12-18T06:30:44;18.47;;;10.00;;
5622;SDS011;2833;50.432;10.706;2022-12-18T06:33:09;22.83;;;12.03;;
5622;SDS011;2833;50.432;10.706;2022-12-18T06:35:35;18.17;;;10.00;;
5622;SDS011;2833;50.432;10.706;2022-12-18T06:38:01;14.43;;;9.37;;
5622;SDS011;2833;50.432;10.706;2022-12-18T06:40:26;21.27;;;9.80;;
5622;SDS011;2833;50.432;10.706;2022-12-18T06:42:51;18.47;;;10.10;;
5622;SDS011;2833;50.432;10.706;2022-12-18T06:45:16;17.40;;;10.60;;
5622;SDS011;2833;50.432;10.706;2022-12-18T06:47:42;18.60;;;10.70;;
5622;SDS011;2833;50.432;10.706;2022-12-18T06:50:07;21.57;;;11.20;;
5622;SDS011;2833;50.432;10.706;2022-12-18T06:52:33;21.60;;;11.00;;
5622;SDS011;2833;50.432;10.706;2022-12-18T06:54:58;21.93;;;11.33;;
5622;SDS011;2833;50.432;10.706;2022-12-18T06:57:24;18.93;;;11.30;;
5622;SDS011;2833;50.432;10.706;2022-12-18T06:59:49;20.97;;;11.13;;
5622;SDS011;2833;50.432;10.706;2022-12-18T07:02:14;17.20;;;10.70;;
5622;SDS011;2833;50.432;10.706;2022-12-18T07:04:39;17.63;;;10.93;;
5622;SDS011;2833;50.432;10.706;2022-12-18T07:07:05;20.30;;;11.67;;
5622;SDS011;2833;50.432;10.706;2022-12-18T07:09:30;21.40;;;11.13;;
5622;SDS011;2833;50.432;10.706;2022-12-18T07:11:55;24.40;;;11.67;;
5622;SDS011;2833;50.432;10.706;2022-12-18T07:14:20;21.53;;;12.27;;
5622;SDS011;2833;50.432;10.706;2022-12-18T07:16:45;16.60;;;10.57;;
5622;SDS011;2833;50.432;10.706;2022-12-18T07:19:11;22.13;;;11.67;;
5622;SDS011;2833;50.432;10.706;2022-12-18T07:21:36;22.83;;;12.23;;
5622;SDS011;2833;50.432;10.706;2022-12-18T07:24:01;22.40;;;11.93;;
5622;SDS011;2833;50.432;10.706;2022-12-18T07:26:26;33.60;;;16.43;;
5622;SDS011;2833;50.432;10.706;2022-12-18T07:28:54;26.30;;;13.23;;
5622;SDS011;2833;50.432;10.706;2022-12-18T07:31:20;24.70;;;14.17;;
5622;SDS011;2833;50.432;10.706;2022-12-18T07:33:46;25.37;;;13.77;;
5622;SDS011;2833;50.432;10.706;2022-12-18T07:36:11;36.70;;;20.83;;
5622;SDS011;2833;50.432;10.706;2022-12-18T07:38:37;29.20;;;17.77;;
5622;SDS011;2833;50.432;10.706;2022-12-18T07:41:06;30.23;;;17.00;;
5622;SDS011;2833;50.432;10.706;2022-12-18T07:43:32;24.97;;;15.70;;
5622;SDS011;2833;50.432;10.706;2022-12-18T07:45:57;26.40;;;15.47;;
5622;SDS011;2833;50.432;10.706;2022-12-18T07:48:22;22.73;;;13.60;;
5622;SDS011;2833;50.432;10.706;2022-12-18T07:50:47;28.77;;;16.60;;
5622;SDS011;2833;50.432;10.706;2022-12-18T07:53:13;75.47;;;35.10;;
5622;SDS011;2833;50.432;10.706;2022-12-18T07:55:39;26.33;;;13.67;;
5622;SDS011;2833;50.432;10.706;2022-12-18T07:58:04;22.10;;;12.87;;
5622;SDS011;2833;50.432;10.706;2022-12-18T08:00:30;20.90;;;12.27;;
5622;SDS011;2833;50.432;10.706;2022-12-18T08:02:55;17.43;;;11.23;;
5622;SDS011;2833;50.432;10.706;2022-12-18T08:05:21;22.60;;;12.20;;
5622;SDS011;2833;50.432;10.706;2022-12-18T08:07:46;21.70;;;13.43;;
5622;SDS011;2833;50.432;10.706;2022-12-18T08:10:11;32.40;;;16.20;;
5622;SDS011;2833;50.432;10.706;2022-12-18T08:12:37;48.70;;;23.00;;
5622;SDS011;2833;50.432;10.706;2022-12-18T08:15:02;59.80;;;23.07;;
5622;SDS011;2833;50.432;10.706;2022-12-18T08:17:27;171.40;;;45.83;;
5622;SDS011;2833;50.432;10.706;2022-12-18T08:19:52;197.83;;;52.10;;
5622;SDS011;2833;50.432;10.706;2022-12-18T08:22:18;241.60;;;60.93;;
5622;SDS011;2833;50.432;10.706;2022-12-18T08:24:43;166.67;;;56.60;;
5622;SDS011;2833;50.432;10.706;2022-12-18T08:27:08;71.13;;;36.33;;
5622;SDS011;2833;50.432;10.706;2022-12-18T08:29:34;46.97;;;25.40;;
5622;SDS011;2833;50.432;10.706;2022-12-18T08:31:59;47.47;;;25.57;;
5622;SDS011;2833;50.432;10.706;2022-12-18T08:34:24;49.20;;;26.73;;
5622;SDS011;2833;50.432;10.706;2022-12-18T08:36:49;55.33;;;29.83;;
5622;SDS011;2833;50.432;10.706;2022-12-18T08:39:14;51.83;;;30.30;;
5622;SDS011;2833;50.432;10.706;2022-12-18T08:41:40;43.00;;;26.00;;
5622;SDS011;2833;50.432;10.706;2022-12-18T08:44:06;48.93;;;26.87;;
5622;SDS011;2833;50.432;10.706;2022-12-18T08:46:50;44.13;;;25.00;;
5622;SDS011;2833;50.432;10.706;2022-12-18T08:49:16;51.10;;;27.20;;
5622;SDS011;2833;50.432;10.706;2022-12-18T08:51:41;56.13;;;29.30;;
5622;SDS011;2833;50.432;10.706;2022-12-18T08:54:06;47.13;;;26.13;;
5622;SDS011;2833;50.432;10.706;2022-12-18T08:56:31;53.43;;;26.77;;
5622;SDS011;2833;50.432;10.706;2022-12-18T08:58:58;53.37;;;28.93;;
5622;SDS011;2833;50.432;10.706;2022-12-18T09:01:23;61.17;;;31.30;;
5622;SDS011;2833;50.432;10.706;2022-12-18T09:03:48;68.80;;;31.43;;
5622;SDS011;2833;50.432;10.706;2022-12-18T09:06:15;69.93;;;35.10;;
5622;SDS011;2833;50.432;10.706;2022-12-18T09:08:41;80.07;;;37.27;;
5622;SDS011;2833;50.432;10.706;2022-12-18T09:11:14;114.20;;;49.77;;
5622;SDS011;2833;50.432;10.706;2022-12-18T09:13:40;99.30;;;44.33;;
5622;SDS011;2833;50.432;10.706;2022-12-18T09:16:05;115.67;;;50.43;;
5622;SDS011;2833;50.432;10.706;2022-12-18T09:18:31;145.17;;;62.50;;
5622;SDS011;2833;50.432;10.706;2022-12-18T09:20:56;97.30;;;38.07;;
5622;SDS011;2833;50.432;10.706;2022-12-18T09:23:21;72.80;;;29.27;;
5622;SDS011;2833;50.432;10.706;2022-12-18T09:25:47;72.73;;;29.20;;
5622;SDS011;2833;50.432;10.706;2022-12-18T09:28:16;65.37;;;26.17;;
5622;SDS011;2833;50.432;10.706;2022-12-18T09:30:43;71.33;;;28.13;;
5622;SDS011;2833;50.432;10.706;2022-12-18T09:33:09;60.40;;;26.70;;
5622;SDS011;2833;50.432;10.706;2022-12-18T09:35:37;61.40;;;24.40;;
5622;SDS011;2833;50.432;10.706;2022-12-18T09:38:03;54.13;;;22.00;;
5622;SDS011;2833;50.432;10.706;2022-12-18T09:40:31;53.77;;;18.40;;
5622;SDS011;2833;50.432;10.706;2022-12-18T09:42:58;53.17;;;21.73;;
5622;SDS011;2833;50.432;10.706;2022-12-18T09:45:24;47.80;;;22.33;;
5622;SDS011;2833;50.432;10.706;2022-12-18T09:47:50;52.57;;;21.30;;
5622;SDS011;2833;50.432;10.706;2022-12-18T09:50:32;53.93;;;20.70;;
5622;SDS011;2833;50.432;10.706;2022-12-18T09:52:59;39.70;;;16.50;;
5622;SDS011;2833;50.432;10.706;2022-12-18T09:55:32;28.50;;;12.60;;
5622;SDS011;2833;50.432;10.706;2022-12-18T10:00:44;43.33;;;19.20;;
5622;SDS011;2833;50.432;10.706;2022-12-18T10:03:10;35.83;;;15.80;;
5622;SDS011;2833;50.432;10.706;2022-12-18T10:13:28;37.30;;;17.20;;
5622;SDS011;2833;50.432;10.706;2022-12-18T10:16:09;32.93;;;18.40;;
5622;SDS011;2833;50.432;10.706;2022-12-18T10:21:40;35.37;;;17.23;;
5622;SDS011;2833;50.432;10.706;2022-12-18T10:26:40;51.13;;;23.70;;
5622;SDS011;2833;50.432;10.706;2022-12-18T10:29:16;168.43;;;56.63;;
5622;SDS011;2833;50.432;10.706;2022-12-18T10:31:42;79.67;;;33.27;;
5622;SDS011;2833;50.432;10.706;2022-12-18T10:34:11;53.13;;;31.43;;
5622;SDS011;2833;50.432;10.706;2022-12-18T10:36:36;25.60;;;13.97;;
5622;SDS011;2833;50.432;10.706;2022-12-18T10:39:21;27.07;;;11.80;;
5622;SDS011;2833;50.432;10.706;2022-12-18T10:41:47;17.73;;;9.87;;
5622;SDS011;2833;50.432;10.706;2022-12-18T10:44:22;34.00;;;18.67;;
5622;SDS011;2833;50.432;10.706;2022-12-18T10:46:51;33.83;;;17.10;;
5622;SDS011;2833;50.432;10.706;2022-12-18T10:49:23;14.20;;;7.00;;
5622;SDS011;2833;50.432;10.706;2022-12-18T10:51:48;21.23;;;10.33;;
5622;SDS011;2833;50.432;10.706;2022-12-18T10:54:15;18.10;;;8.10;;
5622;SDS011;2833;50.432;10.706;2022-12-18T10:56:41;19.53;;;9.57;;
5622;SDS011;2833;50.432;10.706;2022-12-18T10:59:08;25.90;;;10.40;;
5622;SDS011;2833;50.432;10.706;2022-12-18T11:01:53;31.03;;;10.70;;
5622;SDS011;2833;50.432;10.706;2022-12-18T11:04:23;15.13;;;7.00;;
5622;SDS011;2833;50.432;10.706;2022-12-18T11:06:57;15.20;;;7.73;;
5622;SDS011;2833;50.432;10.706;2022-12-18T11:09:23;15.60;;;6.80;;
5622;SDS011;2833;50.432;10.706;2022-12-18T11:11:49;15.23;;;7.83;;
5622;SDS011;2833;50.432;10.706;2022-12-18T11:14:18;20.93;;;10.07;;
5622;SDS011;2833;50.432;10.706;2022-12-18T11:16:45;17.37;;;7.60;;
5622;SDS011;2833;50.432;10.706;2022-12-18T11:21:40;15.47;;;6.50;;
5622;SDS011;2833;50.432;10.706;2022-12-18T11:24:07;29.43;;;12.57;;
5622;SDS011;2833;50.432;10.706;2022-12-18T11:26:40;13.30;;;7.50;;
5622;SDS011;2833;50.432;10.706;2022-12-18T11:29:09;12.90;;;6.77;;
5622;SDS011;2833;50.432;10.706;2022-12-18T11:31:34;20.47;;;7.70;;
5622;SDS011;2833;50.432;10.706;2022-12-18T11:36:25;26.17;;;11.60;;
5622;SDS011;2833;50.432;10.706;2022-12-18T11:38:53;13.30;;;7.57;;
5622;SDS011;2833;50.432;10.706;2022-12-18T11:41:26;11.50;;;5.63;;
5622;SDS011;2833;50.432;10.706;2022-12-18T11:44:18;13.97;;;6.97;;
5622;SDS011;2833;50.432;10.706;2022-12-18T11:46:49;15.10;;;7.30;;
5622;SDS011;2833;50.432;10.706;2022-12-18T11:49:23;7.70;;;4.27;;
5622;SDS011;2833;50.432;10.706;2022-12-18T11:51:52;12.43;;;6.03;;
5622;SDS011;2833;50.432;10.706;2022-12-18T11:54:18;14.03;;;7.00;;
5622;SDS011;2833;50.432;10.706;2022-12-18T11:59:15;9.27;;;5.20;;
5622;SDS011;2833;50.432;10.706;2022-12-18T12:01:50;14.80;;;5.80;;
5622;SDS011;2833;50.432;10.706;2022-12-18T12:09:28;7.00;;;4.53;;
5622;SDS011;2833;50.432;10.706;2022-12-18T12:14:54;16.10;;;6.00;;
5622;SDS011;2833;50.432;10.706;2022-12-18T12:27:20;15.50;;;7.93;;
5622;SDS011;2833;50.432;10.706;2022-12-18T12:32:42;18.73;;;8.17;;
5622;SDS011;2833;50.432;10.706;2022-12-18T12:37:39;6.77;;;3.47;;
5622;SDS011;2833;50.432;10.706;2022-12-18T12:40:06;9.77;;;4.47;;
5622;SDS011;2833;50.432;10.706;2022-12-18T12:48:03;11.57;;;4.30;;
5622;SDS011;2833;50.432;10.706;2022-12-18T12:50:30;19.30;;;7.90;;
5622;SDS011;2833;50.432;10.706;2022-12-18T12:52:57;4.20;;;3.13;;
5622;SDS011;2833;50.432;10.706;2022-12-18T12:55:24;4.33;;;2.43;;
5622;SDS011;2833;50.432;10.706;2022-12-18T12:58:05;8.73;;;4.47;;
5622;SDS011;2833;50.432;10.706;2022-12-18T13:00:36;15.70;;;4.90;;
5622;SDS011;2833;50.432;10.706;2022-12-18T13:03:08;16.77;;;8.30;;
5622;SDS011;2833;50.432;10.706;2022-12-18T13:05:58;20.00;;;9.20;;
5622;SDS011;2833;50.432;10.706;2022-12-18T13:08:26;25.67;;;11.27;;
5622;SDS011;2833;50.432;10.706;2022-12-18T13:10:52;65.17;;;22.07;;
5622;SDS011;2833;50.432;10.706;2022-12-18T13:13:50;29.00;;;14.10;;
5622;SDS011;2833;50.432;10.706;2022-12-18T13:16:18;31.93;;;14.47;;
5622;SDS011;2833;50.432;10.706;2022-12-18T13:18:48;31.53;;;15.67;;
5622;SDS011;2833;50.432;10.706;2022-12-18T13:23:45;53.37;;;18.13;;
5622;SDS011;2833;50.432;10.706;2022-12-18T13:26:27;64.60;;;25.90;;
5622;SDS011;2833;50.432;10.706;2022-12-18T13:28:54;19.03;;;9.30;;
5622;SDS011;2833;50.432;10.706;2022-12-18T13:34:14;14.20;;;6.67;;
5622;SDS011;2833;50.432;10.706;2022-12-18T13:36:41;18.80;;;8.17;;
5622;SDS011;2833;50.432;10.706;2022-12-18T13:41:47;12.70;;;6.37;;
5622;SDS011;2833;50.432;10.706;2022-12-18T13:44:24;12.27;;;7.00;;
5622;SDS011;2833;50.432;10.706;2022-12-18T13:46:50;19.77;;;10.30;;
5622;SDS011;2833;50.432;10.706;2022-12-18T13:51:42;15.23;;;8.77;;
5622;SDS011;2833;50.432;10.706;2022-12-18T13:56:52;14.80;;;7.30;;
5622;SDS011;2833;50.432;10.706;2022-12-18T13:59:24;19.10;;;9.33;;
5622;SDS011;2833;50.432;10.706;2022-12-18T14:01:57;13.10;;;8.10;;
5622;SDS011;2833;50.432;10.706;2022-12-18T14:06:49;18.90;;;11.37;;
5622;SDS011;2833;50.432;10.706;2022-12-18T14:09:15;13.90;;;8.07;;
5622;SDS011;2833;50.432;10.706;2022-12-18T14:11:46;18.23;;;9.90;;
5622;SDS011;2833;50.432;10.706;2022-12-18T14:14:13;9.50;;;5.60;;
5622;SDS011;2833;50.432;10.706;2022-12-18T14:16:38;13.50;;;6.80;;
5622;SDS011;2833;50.432;10.706;2022-12-18T14:19:08;12.87;;;7.37;;
5622;SDS011;2833;50.432;10.706;2022-12-18T14:21:35;19.67;;;10.97;;
5622;SDS011;2833;50.432;10.706;2022-12-18T14:26:33;74.07;;;23.57;;
5622;SDS011;2833;50.432;10.706;2022-12-18T14:29:00;26.13;;;11.70;;
5622;SDS011;2833;50.432;10.706;2022-12-18T14:31:27;18.13;;;9.23;;
5622;SDS011;2833;50.432;10.706;2022-12-18T14:33:53;91.83;;;36.10;;
5622;SDS011;2833;50.432;10.706;2022-12-18T14:36:20;115.20;;;56.60;;
5622;SDS011;2833;50.432;10.706;2022-12-18T14:38:52;175.97;;;57.17;;
5622;SDS011;2833;50.432;10.706;2022-12-18T14:41:19;159.83;;;52.10;;
5622;SDS011;2833;50.432;10.706;2022-12-18T14:43:45;155.77;;;62.87;;
5622;SDS011;2833;50.432;10.706;2022-12-18T14:46:32;29.20;;;13.27;;
5622;SDS011;2833;50.432;10.706;2022-12-18T14:48:59;30.17;;;15.23;;
5622;SDS011;2833;50.432;10.706;2022-12-18T14:51:25;37.67;;;18.27;;
5622;SDS011;2833;50.432;10.706;2022-12-18T14:58:45;21.23;;;9.93;;
5622;SDS011;2833;50.432;10.706;2022-12-18T15:01:17;16.93;;;8.20;;
5622;SDS011;2833;50.432;10.706;2022-12-18T15:03:43;20.10;;;9.23;;
5622;SDS011;2833;50.432;10.706;2022-12-18T15:06:15;33.63;;;18.60;;
5622;SDS011;2833;50.432;10.706;2022-12-18T15:08:41;20.10;;;8.90;;
5622;SDS011;2833;50.432;10.706;2022-12-18T15:11:24;18.67;;;9.03;;
5622;SDS011;2833;50.432;10.706;2022-12-18T15:13:50;57.57;;;18.43;;
5622;SDS011;2833;50.432;10.706;2022-12-18T15:16:15;61.97;;;23.10;;
5622;SDS011;2833;50.432;10.706;2022-12-18T15:18:41;19.63;;;9.60;;
5622;SDS011;2833;50.432;10.706;2022-12-18T15:21:08;31.53;;;15.23;;
5622;SDS011;2833;50.432;10.706;2022-12-18T15:26:09;19.27;;;8.83;;
5622;SDS011;2833;50.432;10.706;2022-12-18T15:33:35;28.93;;;11.83;;
5622;SDS011;2833;50.432;10.706;2022-12-18T15:36:05;25.47;;;11.10;;
5622;SDS011;2833;50.432;10.706;2022-12-18T15:38:31;20.43;;;11.00;;
5622;SDS011;2833;50.432;10.706;2022-12-18T15:40:56;7.00;;;3.90;;
5622;SDS011;2833;50.432;10.706;2022-12-18T15:43:22;12.87;;;5.90;;
5622;SDS011;2833;50.432;10.706;2022-12-18T15:46:03;9.77;;;5.93;;
5622;SDS011;2833;50.432;10.706;2022-12-18T15:48:29;8.47;;;5.00;;
5622;SDS011;2833;50.432;10.706;2022-12-18T15:50:55;13.07;;;5.97;;
5622;SDS011;2833;50.432;10.706;2022-12-18T15:53:22;11.27;;;5.00;;
5622;SDS011;2833;50.432;10.706;2022-12-18T15:55:47;13.80;;;5.87;;
5622;SDS011;2833;50.432;10.706;2022-12-18T15:58:31;16.27;;;9.17;;
5622;SDS011;2833;50.432;10.706;2022-12-18T16:00:57;17.13;;;8.27;;
5622;SDS011;2833;50.432;10.706;2022-12-18T16:03:23;15.73;;;7.57;;
5622;SDS011;2833;50.432;10.706;2022-12-18T16:05:48;14.40;;;7.93;;
5622;SDS011;2833;50.432;10.706;2022-12-18T16:08:13;9.60;;;5.70;;
5622;SDS011;2833;50.432;10.706;2022-12-18T16:10:39;10.57;;;5.10;;
5622;SDS011;2833;50.432;10.706;2022-12-18T16:13:04;4.90;;;3.27;;
5622;SDS011;2833;50.432;10.706;2022-12-18T16:15:29;13.20;;;6.53;;
5622;SDS011;2833;50.432;10.706;2022-12-18T16:17:54;16.63;;;7.27;;
5622;SDS011;2833;50.432;10.706;2022-12-18T16:20:20;5.93;;;2.63;;
5622;SDS011;2833;50.432;10.706;2022-12-18T16:22:46;10.07;;;3.90;;
5622;SDS011;2833;50.432;10.706;2022-12-18T16:25:25;7.60;;;3.77;;